createdAt,value
2018-10-03T00:01:23.997Z,8.50
2018-10-03T00:03:53.250Z,8.50
2018-10-03T00:06:22.496Z,8.50
2018-10-03T00:08:51.643Z,8.50
2018-10-03T00:11:20.751Z,8.50
2018-10-03T00:13:49.983Z,8.50
2018-10-03T00:16:19.270Z,8.50
2018-10-03T00:18:48.526Z,8.50
2018-10-03T00:21:17.796Z,8.50
2018-10-03T00:23:47.325Z,8.50
2018-10-03T00:26:17.668Z,8.50
2018-10-03T00:28:47.150Z,8.50
2018-10-03T00:31:16.238Z,8.50
2018-10-03T00:33:45.296Z,8.50
2018-10-03T00:36:14.757Z,8.50
2018-10-03T00:38:43.897Z,8.50
2018-10-03T00:41:13.223Z,8.50
2018-10-03T00:43:43.242Z,8.50
2018-10-03T00:46:12.686Z,8.50
2018-10-03T00:48:42.318Z,8.50
2018-10-03T00:51:11.673Z,8.50
2018-10-03T00:53:41.652Z,8.50
2018-10-03T00:56:11.068Z,8.50
2018-10-03T00:58:40.215Z,8.50
2018-10-03T01:01:09.695Z,8.50
2018-10-03T01:03:39.001Z,8.50
2018-10-03T01:06:08.218Z,8.50
2018-10-03T01:08:37.230Z,8.50
2018-10-03T01:11:06.334Z,8.50
2018-10-03T01:13:36.345Z,8.50
2018-10-03T01:16:05.568Z,8.50
2018-10-03T01:18:34.973Z,8.50
2018-10-03T01:21:04.286Z,8.50
2018-10-03T01:23:33.448Z,8.50
2018-10-03T01:26:02.805Z,8.50
2018-10-03T01:28:32.104Z,8.50
2018-10-03T01:31:01.854Z,8.50
2018-10-03T01:33:31.082Z,8.50
2018-10-03T01:36:00.341Z,8.50
2018-10-03T01:38:29.898Z,8.50
2018-10-03T01:40:59.359Z,8.50
2018-10-03T01:43:28.401Z,8.50
2018-10-03T01:45:57.489Z,8.50
2018-10-03T01:48:27.006Z,8.50
2018-10-03T01:50:56.236Z,8.50
2018-10-03T01:53:25.269Z,8.50
2018-10-03T01:55:54.506Z,8.50
2018-10-03T01:58:23.594Z,8.50
2018-10-03T02:00:52.621Z,8.40
2018-10-03T02:03:22.186Z,8.50
2018-10-03T02:05:51.277Z,8.40
2018-10-03T02:08:20.716Z,8.40
2018-10-03T02:10:49.803Z,8.40
2018-10-03T02:13:18.906Z,8.40
2018-10-03T02:15:48.146Z,8.40
2018-10-03T02:18:17.130Z,8.40
2018-10-03T02:20:46.195Z,8.40
2018-10-03T02:23:15.369Z,8.40
2018-10-03T02:25:44.820Z,8.40
2018-10-03T02:28:14.249Z,8.40
2018-10-03T02:30:43.414Z,8.40
2018-10-03T02:33:12.669Z,8.40
2018-10-03T02:35:41.840Z,8.40
2018-10-03T02:38:10.974Z,8.40
2018-10-03T02:40:40.342Z,8.40
2018-10-03T02:43:09.528Z,8.40
2018-10-03T02:45:38.760Z,8.40
2018-10-03T02:48:08.153Z,8.40
2018-10-03T02:50:37.187Z,8.40
2018-10-03T02:53:06.186Z,8.40
2018-10-03T02:55:35.514Z,8.40
2018-10-03T02:58:04.654Z,8.40
2018-10-03T03:00:33.890Z,8.40
2018-10-03T03:03:03.309Z,8.40
2018-10-03T03:05:32.370Z,8.40
2018-10-03T03:08:01.637Z,8.40
2018-10-03T03:10:30.849Z,8.40
2018-10-03T03:12:59.948Z,8.40
2018-10-03T03:15:29.104Z,8.40
2018-10-03T03:17:58.187Z,8.40
2018-10-03T03:20:27.494Z,8.40
2018-10-03T03:22:56.441Z,8.40
2018-10-03T03:25:25.571Z,8.40
2018-10-03T03:27:55.075Z,8.40
2018-10-03T03:30:24.155Z,8.40
2018-10-03T03:32:53.585Z,8.40
2018-10-03T03:35:22.685Z,8.40
2018-10-03T03:37:51.842Z,8.40
2018-10-03T03:40:21.028Z,8.40
2018-10-03T03:42:50.158Z,8.40
2018-10-03T03:45:19.305Z,8.40
2018-10-03T03:47:48.349Z,8.40
2018-10-03T03:50:17.576Z,8.40
2018-10-03T03:52:46.519Z,8.40
2018-10-03T03:55:15.670Z,8.40
2018-10-03T03:57:44.756Z,8.40
2018-10-03T04:00:14.219Z,8.40
2018-10-03T04:02:43.818Z,8.40
2018-10-03T04:05:13.158Z,8.40
2018-10-03T04:07:42.458Z,8.40
2018-10-03T04:10:11.671Z,8.40
2018-10-03T04:12:40.601Z,8.40
2018-10-03T04:15:09.849Z,8.40
2018-10-03T04:17:39.164Z,8.40
2018-10-03T04:20:08.354Z,8.40
2018-10-03T04:22:37.483Z,8.40
2018-10-03T04:25:06.547Z,8.30
2018-10-03T04:27:35.618Z,8.40
2018-10-03T04:30:05.044Z,8.30
2018-10-03T04:32:34.086Z,8.30
2018-10-03T04:35:03.097Z,8.30
2018-10-03T04:37:32.217Z,8.30
2018-10-03T04:40:01.803Z,8.30
2018-10-03T04:42:31.066Z,8.30
2018-10-03T04:45:00.054Z,8.20
2018-10-03T04:47:29.009Z,8.20
2018-10-03T04:49:58.334Z,8.20
2018-10-03T04:52:27.341Z,8.20
2018-10-03T04:54:56.917Z,8.20
2018-10-03T04:57:26.320Z,8.20
2018-10-03T04:59:55.790Z,8.20
2018-10-03T05:02:25.057Z,8.20
2018-10-03T05:04:54.530Z,8.20
2018-10-03T05:07:23.687Z,8.20
2018-10-03T05:09:52.761Z,8.20
2018-10-03T05:12:21.825Z,8.20
2018-10-03T05:14:50.991Z,8.20
2018-10-03T05:17:20.756Z,8.20
2018-10-03T05:19:50.014Z,8.20
2018-10-03T05:22:19.305Z,8.20
2018-10-03T05:24:48.793Z,8.20
2018-10-03T05:27:17.870Z,8.20
2018-10-03T05:29:47.394Z,8.20
2018-10-03T05:32:16.444Z,8.20
2018-10-03T05:34:45.577Z,8.20
2018-10-03T05:37:14.766Z,8.20
2018-10-03T05:39:43.822Z,8.30
2018-10-03T05:42:13.077Z,8.30
2018-10-03T05:44:42.055Z,8.30
2018-10-03T05:47:11.072Z,8.30
2018-10-03T05:49:40.099Z,8.30
2018-10-03T05:52:09.599Z,8.40
2018-10-03T05:54:38.714Z,8.40
2018-10-03T05:57:08.662Z,8.40
2018-10-03T05:59:38.126Z,8.50
2018-10-03T06:02:07.214Z,8.60
2018-10-03T06:04:36.508Z,8.60
2018-10-03T06:07:05.770Z,8.60
2018-10-03T06:09:34.785Z,8.70
2018-10-03T06:12:04.012Z,8.70
2018-10-03T06:14:33.030Z,8.70
2018-10-03T06:17:02.025Z,8.70
2018-10-03T06:19:31.583Z,8.60
2018-10-03T06:22:01.160Z,8.60
2018-10-03T06:24:30.908Z,8.60
2018-10-03T06:27:00.162Z,8.60
2018-10-03T06:29:29.370Z,8.50
2018-10-03T06:31:58.416Z,8.50
2018-10-03T06:34:27.529Z,8.50
2018-10-03T06:36:56.727Z,8.60
2018-10-03T06:39:25.908Z,8.60
2018-10-03T06:41:54.961Z,8.60
2018-10-03T06:44:24.599Z,8.60
2018-10-03T06:46:54.044Z,8.60
2018-10-03T06:49:23.310Z,8.60
2018-10-03T06:51:52.753Z,8.60
2018-10-03T06:54:21.983Z,8.70
2018-10-03T06:56:51.203Z,8.70
2018-10-03T06:59:20.230Z,8.70
2018-10-03T07:01:49.494Z,8.80
2018-10-03T07:04:19.041Z,8.90
2018-10-03T07:06:48.422Z,8.90
2018-10-03T07:09:17.597Z,9.00
2018-10-03T07:11:46.734Z,9.00
2018-10-03T07:14:16.039Z,9.00
2018-10-03T07:16:45.282Z,9.00
2018-10-03T07:19:14.317Z,9.00
2018-10-03T07:21:43.531Z,9.00
2018-10-03T07:24:12.499Z,9.00
2018-10-03T07:26:42.363Z,9.00
2018-10-03T07:29:11.515Z,9.00
2018-10-03T07:31:41.086Z,9.10
2018-10-03T07:34:09.981Z,9.20
2018-10-03T07:36:39.291Z,9.30
2018-10-03T07:39:09.459Z,9.40
2018-10-03T07:41:38.673Z,9.60
2018-10-03T07:44:07.959Z,9.60
2018-10-03T07:46:37.037Z,9.60
2018-10-03T07:49:06.406Z,9.60
2018-10-03T07:51:35.501Z,9.60
2018-10-03T07:54:04.709Z,9.60
2018-10-03T07:56:33.834Z,9.60
2018-10-03T07:59:03.732Z,9.60
2018-10-03T08:01:32.909Z,9.60
2018-10-03T08:04:02.005Z,9.60
2018-10-03T08:06:31.158Z,9.70
2018-10-03T08:09:00.516Z,9.80
2018-10-03T08:11:29.490Z,9.90
2018-10-03T08:13:58.588Z,11.10
2018-10-03T08:16:28.193Z,11.80
2018-10-03T08:18:57.253Z,12.40
2018-10-03T08:21:26.507Z,12.20
2018-10-03T08:23:55.513Z,12.40
2018-10-03T08:26:24.705Z,12.30
2018-10-03T08:28:53.662Z,12.70
2018-10-03T08:31:22.791Z,13.10
2018-10-03T08:33:51.760Z,13.60
2018-10-03T08:36:20.942Z,13.20
2018-10-03T08:38:50.304Z,13.20
2018-10-03T08:41:19.345Z,13.50
2018-10-03T08:43:48.630Z,13.00
2018-10-03T08:46:18.204Z,12.70
2018-10-03T08:48:47.179Z,13.20
2018-10-03T08:51:16.137Z,13.80
2018-10-03T08:53:45.287Z,15.00
2018-10-03T08:56:14.438Z,16.60
2018-10-03T08:58:43.821Z,19.90
2018-10-03T09:01:12.857Z,21.80
2018-10-03T09:03:41.715Z,22.50
2018-10-03T09:06:10.821Z,23.60
2018-10-03T09:08:39.899Z,25.30
2018-10-03T09:11:09.001Z,24.90
2018-10-03T09:13:37.993Z,25.20
2018-10-03T09:16:07.082Z,23.40
2018-10-03T09:18:36.225Z,24.30
2018-10-03T09:21:05.481Z,23.40
2018-10-03T09:23:34.642Z,22.60
2018-10-03T09:26:03.753Z,23.80
2018-10-03T09:28:32.893Z,25.80
2018-10-03T09:31:02.014Z,24.40
2018-10-03T09:33:31.066Z,26.90
2018-10-03T09:36:00.282Z,28.20
2018-10-03T09:38:29.590Z,30.00
2018-10-03T09:40:58.618Z,30.40
2018-10-03T09:43:27.807Z,28.40
2018-10-03T09:45:56.839Z,27.60
2018-10-03T09:48:25.819Z,25.70
2018-10-03T09:50:54.894Z,24.70
2018-10-03T09:53:23.824Z,23.20
2018-10-03T09:55:52.839Z,25.00
2018-10-03T09:58:21.841Z,25.00
2018-10-03T10:00:56.240Z,29.00
2018-10-03T10:03:25.706Z,29.90
2018-10-03T10:05:54.953Z,31.00
2018-10-03T10:08:24.078Z,33.30
2018-10-03T10:10:53.186Z,34.30
2018-10-03T10:13:22.335Z,33.20
2018-10-03T10:15:52.100Z,31.60
2018-10-03T10:18:21.685Z,30.20
2018-10-03T10:20:50.843Z,27.90
2018-10-03T10:23:20.285Z,28.10
2018-10-03T10:25:49.279Z,27.30
2018-10-03T10:28:18.370Z,28.30
2018-10-03T10:30:47.433Z,28.70
2018-10-03T10:33:16.666Z,29.00
2018-10-03T10:35:45.541Z,29.10
2018-10-03T10:38:14.913Z,29.20
2018-10-03T10:40:44.012Z,29.60
2018-10-03T10:43:13.287Z,29.10
2018-10-03T10:45:42.170Z,28.20
2018-10-03T10:48:11.262Z,27.10
2018-10-03T10:50:40.235Z,26.70
2018-10-03T10:53:09.601Z,25.90
2018-10-03T10:55:38.994Z,26.20
2018-10-03T10:58:08.307Z,26.20
2018-10-03T11:00:37.499Z,26.40
2018-10-03T11:03:07.108Z,26.50
2018-10-03T11:05:36.335Z,26.80
2018-10-03T11:08:05.447Z,27.20
2018-10-03T11:10:34.523Z,27.80
2018-10-03T11:13:03.890Z,28.30
2018-10-03T11:15:32.963Z,29.00
2018-10-03T11:18:02.359Z,29.20
2018-10-03T11:20:31.537Z,29.40
2018-10-03T11:23:00.881Z,29.40
2018-10-03T11:25:30.141Z,29.60
2018-10-03T11:27:59.171Z,29.80
2018-10-03T11:30:28.202Z,30.20
2018-10-03T11:32:57.386Z,30.00
2018-10-03T11:35:26.717Z,29.30
2018-10-03T11:37:55.822Z,28.50
2018-10-03T11:40:24.793Z,28.40
2018-10-03T11:42:54.079Z,28.70
2018-10-03T11:45:23.685Z,28.90
2018-10-03T11:47:52.821Z,28.60
2018-10-03T11:50:22.227Z,27.90
2018-10-03T11:52:51.753Z,28.10
2018-10-03T11:55:21.077Z,28.40
2018-10-03T11:57:50.360Z,28.10
2018-10-03T12:00:19.412Z,27.80
2018-10-03T12:02:48.786Z,27.40
2018-10-03T12:05:17.729Z,27.00
2018-10-03T12:07:46.702Z,26.70
2018-10-03T12:10:16.317Z,26.30
2018-10-03T12:12:45.354Z,26.00
2018-10-03T12:15:14.255Z,25.70
2018-10-03T12:17:43.280Z,25.60
2018-10-03T12:20:12.362Z,25.50
2018-10-03T12:22:41.667Z,25.20
2018-10-03T12:25:11.227Z,25.00
2018-10-03T12:27:40.274Z,24.50
2018-10-03T12:30:09.588Z,24.20
2018-10-03T12:32:38.541Z,23.90
2018-10-03T12:35:07.977Z,23.60
2018-10-03T12:37:37.079Z,23.20
2018-10-03T12:40:06.287Z,22.80
2018-10-03T12:42:35.453Z,22.40
2018-10-03T12:45:04.745Z,22.20
2018-10-03T12:47:34.133Z,22.00
2018-10-03T12:50:03.330Z,21.90
2018-10-03T12:52:32.380Z,21.90
2018-10-03T12:55:01.623Z,21.80
2018-10-03T12:57:30.637Z,21.60
2018-10-03T12:59:59.870Z,21.40
2018-10-03T13:02:29.075Z,21.10
2018-10-03T13:04:58.179Z,20.80
2018-10-03T13:07:27.124Z,20.60
2018-10-03T13:09:56.244Z,20.50
2018-10-03T13:12:25.410Z,20.40
2018-10-03T13:14:54.489Z,20.40
2018-10-03T13:17:23.377Z,20.30
2018-10-03T13:19:52.548Z,20.20
2018-10-03T13:22:22.313Z,20.00
2018-10-03T13:24:51.713Z,19.70
2018-10-03T13:27:20.681Z,19.50
2018-10-03T13:29:49.657Z,19.20
2018-10-03T13:32:19.269Z,19.00
2018-10-03T13:34:48.312Z,18.80
2018-10-03T13:37:17.458Z,18.70
2018-10-03T13:39:46.871Z,18.60
2018-10-03T13:42:15.762Z,18.50
2018-10-03T13:44:45.106Z,18.50
2018-10-03T13:47:14.694Z,18.40
2018-10-03T13:49:43.830Z,18.20
2018-10-03T13:52:13.417Z,18.10
2018-10-03T13:54:42.418Z,17.90
2018-10-03T13:57:11.425Z,17.70
2018-10-03T13:59:40.733Z,17.50
2018-10-03T14:02:09.902Z,17.30
2018-10-03T14:04:38.977Z,17.10
2018-10-03T14:07:08.137Z,16.90
2018-10-03T14:09:37.603Z,16.80
2018-10-03T14:12:07.053Z,16.60
2018-10-03T14:14:36.122Z,16.50
2018-10-03T14:17:05.398Z,16.40
2018-10-03T14:19:34.705Z,16.20
2018-10-03T14:22:04.339Z,16.10
2018-10-03T14:24:33.347Z,16.00
2018-10-03T14:27:02.493Z,15.80
2018-10-03T14:29:32.028Z,15.70
2018-10-03T14:32:01.564Z,15.60
2018-10-03T14:34:30.593Z,15.50
2018-10-03T14:36:59.641Z,15.40
2018-10-03T14:39:28.752Z,15.30
2018-10-03T14:41:57.925Z,15.10
2018-10-03T14:44:27.555Z,15.00
2018-10-03T14:46:56.778Z,14.90
2018-10-03T14:49:26.115Z,14.80
2018-10-03T14:51:55.485Z,14.70
2018-10-03T14:54:24.908Z,14.60
2018-10-03T14:56:54.049Z,14.50
2018-10-03T14:59:23.439Z,14.40
2018-10-03T15:01:52.545Z,14.40
2018-10-03T15:04:21.846Z,14.30
2018-10-03T15:06:51.144Z,14.20
2018-10-03T15:09:20.137Z,14.20
2018-10-03T15:11:49.094Z,14.10
2018-10-03T15:14:18.393Z,14.00
2018-10-03T15:16:47.371Z,13.90
2018-10-03T15:19:16.414Z,13.90
2018-10-03T15:21:45.515Z,13.80
2018-10-03T15:24:14.820Z,13.70
2018-10-03T15:26:44.036Z,13.70
2018-10-03T15:29:14.001Z,13.60
2018-10-03T15:31:43.034Z,13.60
2018-10-03T15:34:12.340Z,13.50
2018-10-03T15:36:41.584Z,13.50
2018-10-03T15:39:10.995Z,13.40
2018-10-03T15:41:40.099Z,13.30
2018-10-03T15:44:09.248Z,13.30
2018-10-03T15:46:38.345Z,13.20
2018-10-03T15:49:07.477Z,13.20
2018-10-03T15:51:36.653Z,13.10
2018-10-03T15:54:05.671Z,13.10
2018-10-03T15:56:34.829Z,13.00
2018-10-03T15:59:04.331Z,13.00
2018-10-03T16:01:33.687Z,12.90
2018-10-03T16:04:02.729Z,12.80
2018-10-03T16:06:31.990Z,12.80
2018-10-03T16:09:00.966Z,12.80
2018-10-03T16:11:30.369Z,12.70
2018-10-03T16:13:59.801Z,12.60
2018-10-03T16:16:28.889Z,12.60
2018-10-03T16:18:57.874Z,12.60
2018-10-03T16:21:27.341Z,12.50
2018-10-03T16:23:56.493Z,12.50
2018-10-03T16:26:26.027Z,12.40
2018-10-03T16:28:55.393Z,12.40
2018-10-03T16:31:24.645Z,12.30
2018-10-03T16:33:53.637Z,12.30
2018-10-03T16:36:22.725Z,12.20
2018-10-03T16:38:53.153Z,12.20
2018-10-03T16:41:22.252Z,12.20
2018-10-03T16:43:51.726Z,12.10
2018-10-03T16:46:20.771Z,12.10
2018-10-03T16:48:50.049Z,12.00
2018-10-03T16:51:19.063Z,12.00
2018-10-03T16:53:48.155Z,12.00
2018-10-03T16:56:17.285Z,11.90
2018-10-03T16:58:47.250Z,11.90
2018-10-03T17:01:16.593Z,11.90
2018-10-03T17:03:45.535Z,11.80
2018-10-03T17:06:14.557Z,11.80
2018-10-03T17:08:43.530Z,11.70
2018-10-03T17:11:12.747Z,11.70
2018-10-03T17:13:53.378Z,11.70
2018-10-03T17:16:22.574Z,11.60
2018-10-03T17:18:51.755Z,11.60
2018-10-03T17:21:21.197Z,11.60
2018-10-03T17:23:50.489Z,11.50
2018-10-03T17:26:19.749Z,11.50
2018-10-03T17:28:49.254Z,11.40
2018-10-03T17:31:18.326Z,11.40
2018-10-03T17:33:47.224Z,11.30
2018-10-03T17:36:16.303Z,11.30
2018-10-03T17:38:45.373Z,11.30
2018-10-03T17:41:14.656Z,11.20
2018-10-03T17:43:44.627Z,11.20
2018-10-03T17:46:13.905Z,11.20
2018-10-03T17:48:43.061Z,11.20
2018-10-03T17:51:12.298Z,11.10
2018-10-03T17:53:41.403Z,11.10
2018-10-03T17:56:10.578Z,11.10
2018-10-03T17:58:39.704Z,11.00
2018-10-03T18:01:08.768Z,11.00
2018-10-03T18:03:38.202Z,10.90
2018-10-03T18:06:07.345Z,10.90
2018-10-03T18:08:38.196Z,10.90
2018-10-03T18:11:07.643Z,10.80
2018-10-03T18:13:37.188Z,10.80
2018-10-03T18:16:06.162Z,10.80
2018-10-03T18:18:35.173Z,10.70
2018-10-03T18:21:05.005Z,10.70
2018-10-03T18:23:34.281Z,10.70
2018-10-03T18:26:03.275Z,10.60
2018-10-03T18:28:32.529Z,10.60
2018-10-03T18:31:01.593Z,10.60
2018-10-03T18:33:30.765Z,10.60
2018-10-03T18:36:00.371Z,10.50
2018-10-03T18:38:29.585Z,10.50
2018-10-03T18:40:58.794Z,10.50
2018-10-03T18:43:28.020Z,10.50
2018-10-03T18:45:57.107Z,10.40
2018-10-03T18:48:26.250Z,10.40
2018-10-03T18:50:55.381Z,10.40
2018-10-03T18:53:24.539Z,10.40
2018-10-03T18:55:53.935Z,10.40
2018-10-03T18:58:23.518Z,10.40
2018-10-03T19:00:54.610Z,10.30
2018-10-03T19:03:24.150Z,10.30
2018-10-03T19:05:53.630Z,10.30
2018-10-03T19:08:22.496Z,10.30
2018-10-03T19:10:51.798Z,10.30
2018-10-03T19:13:20.938Z,10.30
2018-10-03T19:15:50.169Z,10.20
2018-10-03T19:18:19.173Z,10.20
2018-10-03T19:20:48.797Z,10.20
2018-10-03T19:23:18.101Z,10.20
2018-10-03T19:25:47.625Z,10.20
2018-10-03T19:28:16.844Z,10.20
2018-10-03T19:30:46.276Z,10.20
2018-10-03T19:33:15.607Z,10.10
2018-10-03T19:35:44.917Z,10.10
2018-10-03T19:38:14.145Z,10.10
2018-10-03T19:40:43.131Z,10.10
2018-10-03T19:43:12.222Z,10.10
2018-10-03T19:45:41.757Z,10.10
2018-10-03T19:48:11.184Z,10.10
2018-10-03T19:50:40.275Z,10.10
2018-10-03T19:53:09.705Z,10.10
2018-10-03T19:55:38.653Z,10.00
2018-10-03T19:58:07.837Z,10.00
2018-10-03T20:00:37.264Z,10.00
2018-10-03T20:03:06.713Z,10.00
2018-10-03T20:05:35.961Z,10.00
2018-10-03T20:08:05.768Z,10.00
2018-10-03T20:10:35.001Z,10.00
2018-10-03T20:13:04.817Z,10.00
2018-10-03T20:15:34.100Z,10.00
2018-10-03T20:18:03.542Z,9.90
2018-10-03T20:20:32.925Z,9.90
2018-10-03T20:23:02.312Z,9.90
2018-10-03T20:25:31.533Z,9.90
2018-10-03T20:28:00.771Z,9.90
2018-10-03T20:30:29.742Z,9.90
2018-10-03T20:32:59.419Z,9.90
2018-10-03T20:35:28.542Z,9.90
2018-10-03T20:37:58.044Z,9.90
2018-10-03T20:40:26.949Z,9.90
2018-10-03T20:42:56.190Z,9.80
2018-10-03T20:45:25.512Z,9.80
2018-10-03T20:47:54.758Z,9.80
2018-10-03T20:50:24.651Z,9.80
2018-10-03T20:52:54.097Z,9.80
2018-10-03T20:55:23.642Z,9.80
2018-10-03T20:57:52.785Z,9.80
2018-10-03T21:00:22.387Z,9.70
2018-10-03T21:02:51.690Z,9.70
2018-10-03T21:05:20.872Z,9.70
2018-10-03T21:07:50.173Z,9.70
2018-10-03T21:10:19.227Z,9.70
2018-10-03T21:12:48.905Z,9.70
2018-10-03T21:15:18.580Z,9.60
2018-10-03T21:17:48.178Z,9.60
2018-10-03T21:20:17.709Z,9.60
2018-10-03T21:22:47.271Z,9.60
2018-10-03T21:25:16.980Z,9.50
2018-10-03T21:27:46.413Z,9.50
2018-10-03T21:30:15.558Z,9.50
2018-10-03T21:32:44.767Z,9.50
2018-10-03T21:35:13.864Z,9.40
2018-10-03T21:37:42.783Z,9.40
2018-10-03T21:40:11.994Z,9.40
2018-10-03T21:42:41.450Z,9.40
2018-10-03T21:45:10.854Z,9.30
2018-10-03T21:47:40.529Z,9.30
2018-10-03T21:50:09.802Z,9.30
2018-10-03T21:52:39.086Z,9.30
2018-10-03T21:55:08.727Z,9.20
2018-10-03T21:57:37.805Z,9.20
2018-10-03T22:00:08.014Z,9.20
2018-10-03T22:02:37.374Z,9.10
2018-10-03T22:05:09.194Z,9.10
2018-10-03T22:07:39.310Z,9.10
2018-10-03T22:10:08.510Z,9.10
2018-10-03T22:12:37.745Z,9.00
2018-10-03T22:15:07.140Z,9.00
2018-10-03T22:17:39.229Z,9.00
2018-10-03T22:20:08.783Z,9.00
2018-10-03T22:22:38.007Z,9.00
2018-10-03T22:25:07.379Z,9.00
2018-10-03T22:27:36.531Z,8.90
2018-10-03T22:30:05.813Z,8.90
2018-10-03T22:32:35.157Z,8.90
2018-10-03T22:35:04.165Z,8.90
2018-10-03T22:37:33.102Z,8.90
2018-10-03T22:40:02.345Z,8.80
2018-10-03T22:42:31.468Z,8.80
2018-10-03T22:45:00.691Z,8.80
2018-10-03T22:47:29.801Z,8.80
2018-10-03T22:49:59.043Z,8.70
2018-10-03T22:52:28.367Z,8.70
2018-10-03T22:54:57.654Z,8.70
2018-10-03T22:57:26.874Z,8.70
2018-10-03T22:59:55.917Z,8.70
2018-10-03T23:02:24.925Z,8.60
2018-10-03T23:04:53.890Z,8.60
2018-10-03T23:07:23.211Z,8.60
2018-10-03T23:09:52.349Z,8.60
2018-10-03T23:12:21.417Z,8.60
2018-10-03T23:14:50.517Z,8.50
2018-10-03T23:17:19.758Z,8.50
2018-10-03T23:19:49.077Z,8.50
2018-10-03T23:22:18.373Z,8.50
2018-10-03T23:24:47.610Z,8.50
2018-10-03T23:27:16.747Z,8.50
2018-10-03T23:29:45.919Z,8.50
2018-10-03T23:32:14.951Z,8.50
2018-10-03T23:34:43.889Z,8.40
2018-10-03T23:37:12.855Z,8.40
2018-10-03T23:39:41.946Z,8.40
2018-10-03T23:42:10.890Z,8.40
2018-10-03T23:44:40.045Z,8.40
2018-10-03T23:47:09.711Z,8.40
2018-10-03T23:49:39.627Z,8.40
2018-10-03T23:52:09.057Z,8.40
2018-10-03T23:54:38.116Z,8.30
2018-10-03T23:57:07.918Z,8.30
2018-10-03T23:59:36.905Z,8.30
